createdAt,value
2023-03-18T00:00:23.401Z,7.83
2023-03-18T00:02:40.431Z,7.84
2023-03-18T00:04:57.795Z,7.82
2023-03-18T00:07:14.775Z,7.82
2023-03-18T00:09:31.839Z,7.83
2023-03-18T00:11:49.104Z,7.84
2023-03-18T00:14:06.020Z,7.86
2023-03-18T00:16:22.995Z,7.85
2023-03-18T00:18:39.979Z,7.84
2023-03-18T00:20:57.986Z,7.85
2023-03-18T00:23:16.215Z,7.84
2023-03-18T00:25:33.448Z,7.83
2023-03-18T00:27:50.515Z,7.82
2023-03-18T00:30:07.479Z,7.81
2023-03-18T00:32:24.702Z,7.80
2023-03-18T00:34:41.589Z,7.79
2023-03-18T00:36:59.613Z,7.78
2023-03-18T00:39:16.683Z,7.78
2023-03-18T00:41:33.711Z,7.80
2023-03-18T00:43:50.745Z,7.82
2023-03-18T00:46:08.069Z,7.82
2023-03-18T00:48:25.301Z,7.81
2023-03-18T00:50:42.327Z,7.80
2023-03-18T00:53:00.326Z,7.78
2023-03-18T00:55:18.346Z,7.75
2023-03-18T00:57:35.556Z,7.74
2023-03-18T00:59:52.611Z,7.74
2023-03-18T01:02:09.912Z,7.75
2023-03-18T01:04:28.180Z,7.76
2023-03-18T01:06:45.521Z,7.76
2023-03-18T01:09:02.852Z,7.77
2023-03-18T01:11:20.122Z,7.80
2023-03-18T01:13:37.170Z,7.79
2023-03-18T01:15:54.258Z,7.78
2023-03-18T01:18:11.436Z,7.78
2023-03-18T01:20:28.475Z,7.78
2023-03-18T01:22:45.650Z,7.79
2023-03-18T01:25:02.855Z,7.79
2023-03-18T01:27:20.540Z,7.79
2023-03-18T01:29:37.815Z,7.81
2023-03-18T01:31:55.214Z,7.81
2023-03-18T01:34:12.429Z,7.81
2023-03-18T01:36:29.357Z,7.81
2023-03-18T01:38:46.444Z,7.80
2023-03-18T01:41:03.537Z,7.81
2023-03-18T01:43:22.015Z,7.82
2023-03-18T01:45:39.398Z,7.81
2023-03-18T01:47:56.320Z,7.82
2023-03-18T01:50:13.381Z,7.82
2023-03-18T01:52:30.262Z,7.81
2023-03-18T01:54:47.309Z,7.80
2023-03-18T01:57:04.207Z,7.82
2023-03-18T01:59:21.490Z,7.84
2023-03-18T02:01:39.614Z,7.84
2023-03-18T02:03:56.465Z,7.81
2023-03-18T02:06:13.779Z,7.83
2023-03-18T02:08:30.681Z,7.81
2023-03-18T02:10:47.708Z,7.79
2023-03-18T02:13:04.749Z,7.76
2023-03-18T02:15:21.734Z,7.75
2023-03-18T02:17:38.715Z,7.73
2023-03-18T02:19:55.786Z,7.70
2023-03-18T02:22:12.724Z,7.66
2023-03-18T02:24:29.772Z,7.64
2023-03-18T02:26:46.765Z,7.59
2023-03-18T02:29:03.793Z,7.51
2023-03-18T02:31:20.849Z,7.49
2023-03-18T02:33:38.129Z,7.49
2023-03-18T02:35:55.392Z,7.45
2023-03-18T02:38:12.524Z,7.46
2023-03-18T02:40:29.853Z,7.47
2023-03-18T02:42:46.889Z,7.47
2023-03-18T02:45:03.954Z,7.46
2023-03-18T02:47:20.897Z,7.44
2023-03-18T02:49:37.794Z,7.45
2023-03-18T02:51:55.742Z,7.45
2023-03-18T02:54:12.770Z,7.43
2023-03-18T02:56:29.777Z,7.45
2023-03-18T02:58:46.802Z,7.47
2023-03-18T03:01:03.826Z,7.46
2023-03-18T03:03:20.783Z,7.45
2023-03-18T03:05:37.868Z,7.45
2023-03-18T03:07:55.108Z,7.42
2023-03-18T03:10:12.106Z,7.41
2023-03-18T03:12:29.179Z,7.39
2023-03-18T03:14:46.275Z,7.36
2023-03-18T03:17:04.343Z,7.35
2023-03-18T03:19:21.353Z,7.32
2023-03-18T03:21:38.654Z,7.30
2023-03-18T03:23:56.719Z,7.32
2023-03-18T03:26:13.549Z,7.30
2023-03-18T03:28:31.825Z,7.34
2023-03-18T03:30:48.837Z,7.35
2023-03-18T03:33:06.507Z,7.34
2023-03-18T03:35:26.436Z,7.31
2023-03-18T03:37:43.345Z,7.31
2023-03-18T03:40:00.372Z,7.32
2023-03-18T03:42:17.397Z,7.33
2023-03-18T03:44:34.476Z,7.33
2023-03-18T03:46:51.463Z,7.34
2023-03-18T03:49:08.500Z,7.36
2023-03-18T03:51:25.428Z,7.33
2023-03-18T03:53:42.393Z,7.31
2023-03-18T03:55:59.444Z,7.30
2023-03-18T03:58:16.437Z,7.28
2023-03-18T04:00:33.805Z,7.27
2023-03-18T04:02:51.097Z,7.28
2023-03-18T04:05:08.125Z,7.25
2023-03-18T04:07:25.050Z,7.24
2023-03-18T04:09:42.295Z,7.24
2023-03-18T04:11:59.335Z,7.22
2023-03-18T04:14:16.195Z,7.20
2023-03-18T04:16:33.133Z,7.21
2023-03-18T04:18:50.528Z,7.22
2023-03-18T04:21:07.431Z,7.22
2023-03-18T04:23:24.694Z,7.20
2023-03-18T04:25:41.894Z,7.19
2023-03-18T04:27:58.924Z,7.19
2023-03-18T04:30:15.940Z,7.14
2023-03-18T04:32:33.057Z,7.11
2023-03-18T04:34:50.394Z,7.08
2023-03-18T04:37:07.342Z,7.10
2023-03-18T04:39:24.236Z,7.10
2023-03-18T04:41:41.164Z,7.06
2023-03-18T04:43:58.157Z,7.05
2023-03-18T04:46:15.173Z,7.05
2023-03-18T04:48:32.116Z,7.04
2023-03-18T04:50:49.340Z,7.05
2023-03-18T04:53:07.368Z,7.06
2023-03-18T04:55:24.618Z,7.04
2023-03-18T04:57:42.008Z,7.04
2023-03-18T04:59:59.049Z,7.03
2023-03-18T05:02:16.081Z,7.02
2023-03-18T05:04:33.307Z,7.03
2023-03-18T05:06:50.256Z,7.04
2023-03-18T05:09:07.171Z,7.07
2023-03-18T05:11:24.350Z,7.06
2023-03-18T05:13:41.364Z,7.06
2023-03-18T05:15:58.406Z,7.05
2023-03-18T05:18:15.312Z,7.05
2023-03-18T05:20:33.280Z,7.04
2023-03-18T05:22:50.517Z,7.06
2023-03-18T05:25:07.495Z,7.06
2023-03-18T05:27:24.777Z,7.06
2023-03-18T05:29:42.104Z,7.04
2023-03-18T05:31:59.238Z,7.03
2023-03-18T05:34:16.554Z,7.03
2023-03-18T05:36:33.660Z,7.02
2023-03-18T05:38:50.929Z,7.01
2023-03-18T05:41:08.956Z,6.98
2023-03-18T05:43:26.191Z,6.94
2023-03-18T05:45:43.358Z,6.92
2023-03-18T05:48:00.657Z,6.92
2023-03-18T05:50:17.543Z,6.92
2023-03-18T05:52:34.824Z,6.94
2023-03-18T05:54:51.839Z,6.95
2023-03-18T05:57:09.037Z,6.95
2023-03-18T05:59:26.153Z,6.95
2023-03-18T06:01:43.168Z,6.96
2023-03-18T06:04:00.058Z,6.96
2023-03-18T06:06:16.951Z,6.98
2023-03-18T06:08:33.991Z,6.96
2023-03-18T06:10:50.909Z,6.96
2023-03-18T06:13:07.836Z,6.97
2023-03-18T06:15:24.874Z,6.96
2023-03-18T06:17:41.858Z,6.99
2023-03-18T06:19:58.749Z,7.00
2023-03-18T06:22:15.813Z,7.00
2023-03-18T06:24:32.814Z,6.99
2023-03-18T06:26:49.737Z,7.01
2023-03-18T06:29:06.724Z,7.03
2023-03-18T06:31:23.893Z,7.06
2023-03-18T06:33:41.260Z,7.07
2023-03-18T06:35:59.347Z,7.09
2023-03-18T06:38:16.279Z,7.10
2023-03-18T06:40:33.266Z,7.12
2023-03-18T06:42:50.292Z,7.13
2023-03-18T06:45:07.408Z,7.12
2023-03-18T06:47:24.732Z,7.10
2023-03-18T06:49:41.641Z,7.10
2023-03-18T06:51:58.687Z,7.10
2023-03-18T06:54:15.728Z,7.09
2023-03-18T06:56:32.714Z,7.13
2023-03-18T06:58:49.735Z,7.18
2023-03-18T07:01:06.840Z,7.19
2023-03-18T07:03:24.799Z,7.18
2023-03-18T07:05:41.740Z,7.18
2023-03-18T07:07:58.669Z,7.20
2023-03-18T07:10:15.701Z,7.18
2023-03-18T07:12:32.774Z,7.16
2023-03-18T07:14:49.673Z,7.13
2023-03-18T07:17:07.549Z,7.15
2023-03-18T07:19:24.574Z,7.15
2023-03-18T07:21:41.603Z,7.15
2023-03-18T07:23:58.648Z,7.15
2023-03-18T07:26:15.585Z,7.16
2023-03-18T07:28:32.897Z,7.18
2023-03-18T07:30:50.037Z,7.21
2023-03-18T07:33:08.240Z,7.28
2023-03-18T07:35:25.292Z,7.36
2023-03-18T07:37:42.538Z,7.46
2023-03-18T07:39:59.654Z,7.51
2023-03-18T07:42:16.892Z,7.58
2023-03-18T07:44:34.137Z,7.63
2023-03-18T07:46:51.075Z,7.69
2023-03-18T07:49:07.994Z,7.78
2023-03-18T07:51:25.321Z,7.86
2023-03-18T07:53:42.572Z,7.97
2023-03-18T07:55:59.507Z,8.06
2023-03-18T07:58:16.604Z,8.16
2023-03-18T08:00:33.665Z,8.32
2023-03-18T08:02:50.698Z,8.44
2023-03-18T08:05:07.710Z,8.62
2023-03-18T08:07:24.785Z,8.73
2023-03-18T08:09:42.072Z,8.81
2023-03-18T08:11:58.965Z,8.96
2023-03-18T08:14:15.977Z,9.04
2023-03-18T08:16:33.343Z,9.26
2023-03-18T08:18:50.240Z,9.36
2023-03-18T08:21:08.510Z,9.39
2023-03-18T08:23:25.512Z,9.55
2023-03-18T08:25:42.746Z,9.65
2023-03-18T08:27:59.755Z,9.76
2023-03-18T08:30:17.012Z,9.80
2023-03-18T08:32:34.313Z,9.83
2023-03-18T08:34:51.737Z,9.96
2023-03-18T08:37:08.685Z,10.15
2023-03-18T08:39:25.729Z,10.34
2023-03-18T08:41:44.782Z,10.44
2023-03-18T08:44:02.819Z,10.62
2023-03-18T08:46:19.765Z,10.83
2023-03-18T08:48:36.874Z,10.96
2023-03-18T08:50:55.072Z,11.13
2023-03-18T08:53:13.366Z,11.30
2023-03-18T08:55:30.252Z,11.47
2023-03-18T08:57:47.547Z,11.66
2023-03-18T09:00:04.817Z,11.89
2023-03-18T09:02:22.106Z,12.10
2023-03-18T09:04:39.154Z,12.21
2023-03-18T09:06:56.245Z,12.28
2023-03-18T09:09:13.556Z,12.32
2023-03-18T09:11:30.664Z,12.33
2023-03-18T09:13:47.697Z,12.34
2023-03-18T09:16:04.950Z,12.27
2023-03-18T09:18:21.975Z,12.32
2023-03-18T09:20:39.114Z,12.40
2023-03-18T09:22:56.049Z,12.41
2023-03-18T09:25:13.336Z,12.52
2023-03-18T09:27:30.197Z,12.60
2023-03-18T09:29:47.551Z,12.65
2023-03-18T09:32:04.883Z,12.71
2023-03-18T09:34:22.110Z,12.74
2023-03-18T09:36:39.158Z,12.77
2023-03-18T09:38:56.440Z,12.80
2023-03-18T09:41:13.379Z,12.84
2023-03-18T09:43:30.321Z,12.88
2023-03-18T09:45:47.684Z,12.93
2023-03-18T09:48:04.598Z,13.04
2023-03-18T09:50:21.808Z,13.15
2023-03-18T09:52:38.875Z,13.24
2023-03-18T09:54:56.133Z,13.35
2023-03-18T09:57:13.453Z,13.37
2023-03-18T09:59:30.344Z,13.34
2023-03-18T10:01:47.670Z,13.44
2023-03-18T10:04:04.711Z,13.52
2023-03-18T10:06:21.703Z,13.74
2023-03-18T10:08:38.584Z,13.94
2023-03-18T10:10:55.588Z,14.02
2023-03-18T10:13:12.802Z,14.23
2023-03-18T10:15:30.131Z,14.35
2023-03-18T10:17:47.151Z,14.47
2023-03-18T10:20:04.193Z,14.54
2023-03-18T10:22:21.226Z,14.55
2023-03-18T10:24:39.114Z,14.69
2023-03-18T10:26:56.354Z,14.63
2023-03-18T10:29:13.444Z,14.62
2023-03-18T10:31:30.748Z,14.73
2023-03-18T10:33:48.130Z,14.88
2023-03-18T10:36:05.163Z,15.02
2023-03-18T10:38:22.174Z,15.22
2023-03-18T10:40:39.479Z,15.40
2023-03-18T10:42:56.835Z,15.50
2023-03-18T10:45:13.845Z,15.58
2023-03-18T10:47:30.932Z,15.67
2023-03-18T10:49:48.259Z,15.80
2023-03-18T10:52:06.327Z,15.94
2023-03-18T10:54:23.409Z,15.88
2023-03-18T10:56:41.544Z,15.92
2023-03-18T10:58:58.452Z,16.05
2023-03-18T11:01:17.439Z,16.27
2023-03-18T11:03:37.387Z,16.38
2023-03-18T11:05:54.389Z,16.27
2023-03-18T11:08:11.694Z,16.34
2023-03-18T11:10:29.002Z,16.24
2023-03-18T11:12:45.981Z,16.38
2023-03-18T11:15:03.033Z,16.67
2023-03-18T11:17:20.118Z,16.79
2023-03-18T11:19:37.440Z,16.96
2023-03-18T11:21:54.488Z,17.17
2023-03-18T11:24:11.528Z,17.09
2023-03-18T11:26:28.507Z,17.00
2023-03-18T11:28:45.616Z,16.84
2023-03-18T11:31:02.912Z,16.58
2023-03-18T11:33:20.170Z,16.50
2023-03-18T11:35:38.253Z,16.39
2023-03-18T11:37:55.318Z,16.42
2023-03-18T11:40:12.375Z,16.33
2023-03-18T11:42:29.692Z,16.34
2023-03-18T11:44:47.945Z,16.24
2023-03-18T11:47:05.310Z,16.23
2023-03-18T11:49:22.371Z,16.21
2023-03-18T11:51:40.811Z,16.09
2023-03-18T11:53:57.825Z,16.00
2023-03-18T11:56:15.086Z,16.06
2023-03-18T11:58:32.111Z,16.12
2023-03-18T12:00:49.377Z,16.14
2023-03-18T12:03:06.382Z,15.94
2023-03-18T12:05:23.488Z,16.14
2023-03-18T12:07:40.740Z,16.28
2023-03-18T12:09:57.699Z,16.46
2023-03-18T12:12:14.675Z,16.50
2023-03-18T12:14:31.761Z,16.47
2023-03-18T12:16:49.167Z,16.41
2023-03-18T12:19:06.236Z,16.34
2023-03-18T12:21:23.282Z,16.29
2023-03-18T12:23:40.592Z,16.22
2023-03-18T12:25:58.839Z,16.18
2023-03-18T12:28:16.214Z,16.23
2023-03-18T12:30:33.784Z,16.25
2023-03-18T12:32:51.189Z,16.22
2023-03-18T12:35:08.187Z,16.24
2023-03-18T12:37:25.230Z,16.26
2023-03-18T12:39:42.264Z,16.25
2023-03-18T12:41:59.589Z,16.24
2023-03-18T12:44:16.516Z,16.37
2023-03-18T12:46:33.584Z,16.39
2023-03-18T12:48:51.879Z,16.25
2023-03-18T12:51:08.828Z,16.23
2023-03-18T12:53:26.122Z,16.13
2023-03-18T12:55:43.378Z,16.15
2023-03-18T12:58:00.297Z,16.04
2023-03-18T13:00:17.699Z,16.00
2023-03-18T13:02:34.911Z,16.01
2023-03-18T13:04:53.789Z,16.09
2023-03-18T13:07:12.108Z,16.25
2023-03-18T13:09:29.180Z,16.38
2023-03-18T13:11:46.471Z,16.51
2023-03-18T13:14:03.442Z,16.39
2023-03-18T13:16:20.757Z,16.36
2023-03-18T13:18:38.070Z,16.56
2023-03-18T13:20:55.070Z,16.69
2023-03-18T13:23:11.931Z,16.77
2023-03-18T13:25:28.984Z,16.90
2023-03-18T13:27:46.109Z,17.07
2023-03-18T13:30:03.335Z,17.26
2023-03-18T13:32:21.559Z,17.26
2023-03-18T13:34:38.452Z,17.05
2023-03-18T13:36:55.434Z,16.87
2023-03-18T13:39:12.658Z,17.03
2023-03-18T13:41:30.542Z,17.21
2023-03-18T13:43:47.648Z,17.42
2023-03-18T13:46:04.940Z,17.45
2023-03-18T13:48:22.016Z,17.26
2023-03-18T13:50:38.992Z,17.17
2023-03-18T13:52:56.358Z,17.15
2023-03-18T13:55:14.798Z,17.26
2023-03-18T13:57:31.727Z,17.40
2023-03-18T13:59:49.991Z,17.56
2023-03-18T14:02:07.252Z,17.53
2023-03-18T14:04:24.200Z,17.51
2023-03-18T14:06:41.189Z,17.65
2023-03-18T14:08:58.184Z,17.76
2023-03-18T14:11:15.420Z,17.79
2023-03-18T14:13:32.360Z,17.71
2023-03-18T14:15:49.436Z,17.82
2023-03-18T14:18:06.378Z,17.95
2023-03-18T14:20:23.796Z,17.97
2023-03-18T14:22:41.235Z,18.06
2023-03-18T14:24:58.132Z,18.21
2023-03-18T14:27:15.055Z,18.37
2023-03-18T14:29:32.067Z,18.45
2023-03-18T14:31:50.157Z,18.34
2023-03-18T14:34:07.086Z,18.22
2023-03-18T14:36:24.334Z,17.95
2023-03-18T14:38:41.662Z,17.96
2023-03-18T14:40:58.687Z,17.70
2023-03-18T14:43:15.811Z,17.65
2023-03-18T14:45:32.974Z,17.45
2023-03-18T14:47:50.199Z,17.31
2023-03-18T14:50:07.137Z,17.40
2023-03-18T14:52:24.164Z,17.56
2023-03-18T14:54:41.181Z,17.59
2023-03-18T14:56:58.032Z,17.64
2023-03-18T14:59:15.043Z,17.69
2023-03-18T15:01:32.340Z,17.58
2023-03-18T15:03:49.239Z,17.35
2023-03-18T15:06:06.234Z,17.18
2023-03-18T15:08:24.247Z,17.16
2023-03-18T15:10:41.349Z,17.13
2023-03-18T15:12:58.403Z,17.05
2023-03-18T15:15:15.289Z,17.05
2023-03-18T15:17:32.388Z,17.12
2023-03-18T15:19:49.416Z,17.19
2023-03-18T15:22:06.291Z,17.27
2023-03-18T15:24:23.557Z,17.10
2023-03-18T15:26:41.556Z,17.23
2023-03-18T15:28:58.470Z,17.44
2023-03-18T15:31:15.484Z,17.69
2023-03-18T15:33:32.548Z,17.85
2023-03-18T15:35:49.938Z,18.04
2023-03-18T15:38:07.240Z,18.19
2023-03-18T15:40:24.252Z,18.24
2023-03-18T15:42:41.366Z,18.23
2023-03-18T15:44:58.324Z,18.20
2023-03-18T15:47:16.343Z,18.20
2023-03-18T15:49:33.617Z,18.29
2023-03-18T15:51:50.649Z,18.36
2023-03-18T15:54:07.744Z,18.31
2023-03-18T15:56:24.673Z,18.33
2023-03-18T15:58:41.653Z,18.48
2023-03-18T16:00:58.909Z,18.92
2023-03-18T16:03:16.338Z,19.04
2023-03-18T16:05:33.444Z,19.21
2023-03-18T16:07:50.437Z,19.33
2023-03-18T16:10:07.525Z,19.21
2023-03-18T16:12:24.536Z,19.17
2023-03-18T16:14:41.544Z,18.87
2023-03-18T16:16:58.545Z,19.04
2023-03-18T16:19:15.608Z,19.15
2023-03-18T16:21:32.682Z,19.25
2023-03-18T16:23:49.908Z,18.89
2023-03-18T16:26:06.943Z,18.65
2023-03-18T16:28:23.902Z,18.64
2023-03-18T16:30:41.088Z,18.79
2023-03-18T16:32:58.040Z,18.49
2023-03-18T16:35:15.065Z,18.19
2023-03-18T16:37:32.124Z,17.95
2023-03-18T16:39:49.174Z,17.48
2023-03-18T16:42:06.472Z,17.01
2023-03-18T16:44:24.479Z,16.64
2023-03-18T16:46:41.375Z,16.29
2023-03-18T16:48:59.459Z,15.91
2023-03-18T16:51:16.471Z,15.67
2023-03-18T16:53:33.709Z,15.48
2023-03-18T16:55:50.601Z,15.27
2023-03-18T16:58:07.589Z,15.07
2023-03-18T17:00:24.712Z,14.92
2023-03-18T17:02:41.744Z,14.72
2023-03-18T17:04:58.725Z,14.49
2023-03-18T17:07:15.763Z,14.33
2023-03-18T17:09:33.086Z,14.17
2023-03-18T17:11:51.079Z,13.99
2023-03-18T17:14:09.528Z,13.86
2023-03-18T17:16:27.816Z,13.70
2023-03-18T17:18:45.083Z,13.57
2023-03-18T17:21:01.991Z,13.40
2023-03-18T17:23:19.955Z,13.28
2023-03-18T17:25:37.234Z,13.10
2023-03-18T17:27:54.154Z,12.99
2023-03-18T17:30:11.049Z,12.87
2023-03-18T17:32:29.255Z,12.74
2023-03-18T17:34:46.376Z,12.67
2023-03-18T17:37:03.655Z,12.54
2023-03-18T17:39:20.908Z,12.41
2023-03-18T17:41:38.145Z,12.27
2023-03-18T17:43:55.465Z,12.18
2023-03-18T17:46:12.531Z,12.11
2023-03-18T17:48:29.801Z,12.00
2023-03-18T17:50:46.698Z,11.88
2023-03-18T17:53:03.773Z,11.78
2023-03-18T17:55:22.460Z,11.69
2023-03-18T17:57:39.603Z,11.57
2023-03-18T17:59:56.822Z,11.52
2023-03-18T18:02:15.046Z,11.41
2023-03-18T18:04:31.976Z,11.30
2023-03-18T18:06:50.032Z,11.21
2023-03-18T18:09:07.114Z,11.15
2023-03-18T18:11:24.269Z,11.06
2023-03-18T18:13:41.284Z,10.96
2023-03-18T18:15:58.207Z,10.87
2023-03-18T18:18:15.071Z,10.79
2023-03-18T18:20:32.315Z,10.76
2023-03-18T18:22:49.228Z,10.71
2023-03-18T18:25:07.095Z,10.61
2023-03-18T18:27:24.111Z,10.54
2023-03-18T18:29:41.445Z,10.44
2023-03-18T18:31:58.347Z,10.38
2023-03-18T18:34:15.382Z,10.28
2023-03-18T18:36:32.363Z,10.22
2023-03-18T18:38:49.310Z,10.13
2023-03-18T18:41:06.577Z,10.05
2023-03-18T18:43:23.670Z,9.99
2023-03-18T18:45:40.954Z,9.94
2023-03-18T18:47:57.913Z,9.89
2023-03-18T18:50:14.853Z,9.84
2023-03-18T18:52:31.865Z,9.81
2023-03-18T18:54:48.878Z,9.72
2023-03-18T18:57:05.799Z,9.66
2023-03-18T18:59:22.775Z,9.63
2023-03-18T19:01:39.885Z,9.56
2023-03-18T19:03:57.183Z,9.50
2023-03-18T19:06:14.148Z,9.44
2023-03-18T19:08:31.181Z,9.38
2023-03-18T19:10:48.217Z,9.31
2023-03-18T19:13:05.490Z,9.24
2023-03-18T19:15:22.736Z,9.20
2023-03-18T19:17:40.087Z,9.13
2023-03-18T19:19:57.148Z,9.07
2023-03-18T19:22:14.078Z,8.99
2023-03-18T19:24:31.172Z,8.95
2023-03-18T19:26:48.491Z,8.94
2023-03-18T19:29:05.786Z,8.90
2023-03-18T19:31:24.050Z,8.86
2023-03-18T19:33:41.456Z,8.84
2023-03-18T19:35:58.425Z,8.84
2023-03-18T19:38:15.379Z,8.80
2023-03-18T19:40:32.348Z,8.75
2023-03-18T19:42:49.297Z,8.71
2023-03-18T19:45:06.358Z,8.67
2023-03-18T19:47:23.347Z,8.64
2023-03-18T19:49:40.278Z,8.63
2023-03-18T19:51:57.663Z,8.60
2023-03-18T19:54:15.204Z,8.61
2023-03-18T19:56:33.131Z,8.59
2023-03-18T19:58:51.524Z,8.61
2023-03-18T20:01:08.842Z,8.59
2023-03-18T20:03:27.060Z,8.63
2023-03-18T20:05:44.163Z,8.61
2023-03-18T20:08:01.493Z,8.58
2023-03-18T20:10:18.420Z,8.56
2023-03-18T20:12:35.441Z,8.54
2023-03-18T20:14:52.484Z,8.51
2023-03-18T20:17:10.567Z,8.49
2023-03-18T20:19:27.819Z,8.48
2023-03-18T20:21:45.108Z,8.44
2023-03-18T20:24:02.013Z,8.41
2023-03-18T20:26:18.955Z,8.38
2023-03-18T20:28:35.897Z,8.34
2023-03-18T20:30:52.831Z,8.32
2023-03-18T20:33:09.984Z,8.30
2023-03-18T20:35:26.851Z,8.27
2023-03-18T20:37:43.780Z,8.24
2023-03-18T20:40:00.691Z,8.20
2023-03-18T20:42:17.752Z,8.16
2023-03-18T20:44:35.727Z,8.13
2023-03-18T20:46:53.039Z,8.12
2023-03-18T20:49:09.949Z,8.10
2023-03-18T20:51:26.805Z,8.07
2023-03-18T20:53:44.650Z,8.05
2023-03-18T20:56:01.705Z,8.02
2023-03-18T20:58:18.654Z,8.05
2023-03-18T21:00:35.587Z,8.01
2023-03-18T21:02:52.837Z,7.98
2023-03-18T21:05:10.141Z,7.94
2023-03-18T21:07:28.028Z,7.92
2023-03-18T21:09:44.976Z,7.87
2023-03-18T21:12:01.893Z,7.85
2023-03-18T21:14:18.779Z,7.86
2023-03-18T21:16:37.782Z,7.91
2023-03-18T21:18:54.914Z,7.93
2023-03-18T21:21:11.922Z,7.91
2023-03-18T21:23:28.983Z,7.90
2023-03-18T21:25:46.020Z,7.88
2023-03-18T21:28:02.989Z,7.81
2023-03-18T21:30:20.277Z,7.77
2023-03-18T21:32:37.654Z,7.77
2023-03-18T21:34:54.812Z,7.79
2023-03-18T21:37:11.867Z,7.80
2023-03-18T21:39:29.911Z,7.82
2023-03-18T21:41:46.824Z,7.83
2023-03-18T21:44:04.097Z,7.86
2023-03-18T21:46:22.137Z,7.87
2023-03-18T21:48:39.484Z,7.87
2023-03-18T21:50:56.589Z,7.89
2023-03-18T21:53:13.493Z,7.88
2023-03-18T21:55:30.443Z,7.87
2023-03-18T21:57:48.937Z,7.88
2023-03-18T22:00:06.693Z,7.88
2023-03-18T22:02:24.784Z,7.86
2023-03-18T22:04:41.979Z,7.85
2023-03-18T22:06:59.307Z,7.88
2023-03-18T22:09:16.696Z,7.88
2023-03-18T22:11:34.063Z,7.87
2023-03-18T22:13:51.305Z,7.89
2023-03-18T22:16:08.286Z,7.90
2023-03-18T22:18:25.303Z,7.92
2023-03-18T22:20:42.346Z,7.94
2023-03-18T22:23:00.424Z,7.97
2023-03-18T22:25:17.394Z,7.99
2023-03-18T22:27:34.325Z,8.02
2023-03-18T22:29:51.501Z,8.02
2023-03-18T22:32:08.526Z,8.04
2023-03-18T22:34:25.426Z,8.03
2023-03-18T22:36:43.510Z,8.04
2023-03-18T22:39:00.375Z,8.05
2023-03-18T22:41:17.292Z,8.06
2023-03-18T22:43:34.781Z,8.06
2023-03-18T22:45:52.189Z,8.07
2023-03-18T22:48:09.236Z,8.06
2023-03-18T22:50:26.474Z,8.07
2023-03-18T22:52:43.721Z,8.08
2023-03-18T22:55:00.698Z,8.07
2023-03-18T22:57:17.630Z,8.08
2023-03-18T22:59:34.705Z,8.09
2023-03-18T23:01:51.782Z,8.10
2023-03-18T23:04:09.009Z,8.10
2023-03-18T23:06:25.989Z,8.08
2023-03-18T23:08:43.071Z,8.07
2023-03-18T23:11:00.307Z,8.08
2023-03-18T23:13:17.234Z,8.11
2023-03-18T23:15:34.573Z,8.11
2023-03-18T23:17:51.792Z,8.12
2023-03-18T23:20:08.827Z,8.10
2023-03-18T23:22:25.845Z,8.07
2023-03-18T23:24:42.859Z,8.09
2023-03-18T23:27:00.167Z,8.08
2023-03-18T23:29:17.040Z,8.07
2023-03-18T23:31:35.158Z,8.05
2023-03-18T23:33:52.092Z,8.05
2023-03-18T23:36:09.134Z,8.05
2023-03-18T23:38:26.171Z,8.04
2023-03-18T23:40:43.097Z,8.04
2023-03-18T23:43:00.096Z,8.06
2023-03-18T23:45:17.399Z,8.06
2023-03-18T23:47:34.423Z,8.06
2023-03-18T23:49:51.354Z,8.06
2023-03-18T23:52:08.624Z,8.03
2023-03-18T23:54:25.545Z,8.05
2023-03-18T23:56:42.564Z,8.04
2023-03-18T23:58:59.900Z,8.04
